Aérodrome :
LOGIN :

S'inscrire | Disclaimer

   EN    FR    IT 

 










Légende :    VFR   VFR Marginal   IFR   IFR Intensif   IFR Très Intensif
Visi : 
Plafond : 
>= 8 km
>= 3000ft
5 à 8 km
1000 à 3000 ft
1500m à 5 km
500 à 1000 ft
800 à 1500m
200 à 500 ft
< 800m
< 200 ft
Symboles :   Orages  Brouillard  Fortes neiges  Fortes précipitations  Vent > 20 kt
SIGMETs :   Divers  Orages  Givrage  Turbulence  Onde Orograph.  Cendres Volcan.






- Altitude de l'aérodrome : 505 ft
- Code IATA : SXB


LFST - Strasbourg

DERNIER METAR :
  • 090230Z AUTO 00000KT 3000 BR VV/// 05/05 Q1016 TEMPO 0200 FG

METARs EXPIRÉS :
  • 090200Z AUTO VRB02KT 1800 1100 R23/P2000 R05/1400U BR VV/// 05/05 Q1016 TEMPO 0200 FG
  • 090130Z AUTO VRB03KT 0750 0650 R23/1000D R05/0750N FG VV/// 05/05 Q1016 TEMPO 0200 FG
  • 090100Z AUTO 19005KT 3500 BR VV/// 05/05 Q1016 TEMPO 0200 FG
  • 090030Z AUTO 27004KT 0550 0400 R23/0700N R05/0550N FG VV/// 05/05 Q1016 TEMPO 0200 FG
  • 090000Z AUTO 22004KT 0500 0400 R23/0650N R05/0450N FG VV/// 05/05 Q1016 BECMG 0300 FG
  • 082330Z AUTO 22004KT 170V260 0450 0350 R23/0600N R05/0400N FG VV/// 06/06 Q1015 BECMG 0300 FG
  • 082300Z AUTO 23003KT 0650 0450 R23/1000D R05/0450D FG VV/// 05/05 Q1015 BECMG 0300 FG
  • 082230Z AUTO 18003KT 1000 0550 R23/1200D R05/1800D BCFG VV/// 05/05 Q1015 BECMG 0300 FG
  • 082200Z AUTO 21002KT 2700 BR SCT003 BKN033 BKN042 06/05 Q1015 BECMG 0300 FG VV///
  • 082130Z AUTO VRB01KT 3700 -DZ BR BKN029 BKN037 BKN043 06/06 Q1015 BECMG 0300 FG VV///

TAF TAF LFST
Valide du 09 à 00h jusqu'au 10 à 00h UTC


082300Z 0900/0924 VRB03KT 2000 BR BKN020 BKN045
PROB30
TEMPO 0900/0903 -DZ
PROB40
TEMPO 0900/0910 0200 FG VV///
BECMG 0910/0913 19012KT 9999 NSW
BECMG 0913/0915 -RA
PROB40
TEMPO 0916/0920 3000 RA FEW025TCU
BECMG 0918/0920 25018G28KT



MET'MAP, la Météo Aéronautique d'un coup d'oeil ! - Copyright ORBIFLY Décembre 2007 - Disclaimer

ORBIFLY MET'MAP TEAM :

Programmation & Développement : Alexandra Zaïnal
Sur une idée originale de : Baudouin d'Aumeries
Soutien technique & logistique : Manuel Goepfert
Assistance : Marc-Olivier Méhu




SOURCES & CREDITS :

   NOAA